KVKS/VKS METAR and TAF weather

Enter ICAO airport designator
Station Type Date Time Source
KVKS METAR 2021/09/28 05:35 UTC NOAA

KVKS 280535Z AUTO 00000KT 10SM BKN038 OVC050 23/21 A2999 RMK A01


Station Type Date Time Source
KVKS Decoded METAR 2021/09/28 05:35 UTC NOAA

Vicksburg Municipal, MS, United States (KVKS) 32-14N 090-56W
Sep 28, 2021 - 01:35 AM EDT / 2021.09.28 0535 UTC
Wind: Calm:0
Visibility: 10 mile(s):0
Sky conditions: overcast
Temperature: 73 F (23 C)
Dew Point: 69 F (21 C)
Relative Humidity: 88%
Pressure (altimeter): 29.99 in. Hg (1015 hPa)
ob: KVKS 280535Z AUTO 00000KT 10SM BKN038 OVC050 23/21 A2999 RMK A01
cycle: 5

Station Type Date Time Source
KVKS TAF UTC NOAA

Error!

Example: see airport list